Terminal Aerodrome Forecast
Issued by NWS Cleveland, OH

Home | Current Version | Previous Version | Text Only | Print | Product List | Glossary On
Versions: 1 2 3 4 5 6 7 8 9 10 11 12 13 14 15 16 17 18 19
000
FTUS41 KCLE 170616 AAA
TAFERI
TAF AMD
KERI 170616Z 1706/1806 22006KT 5SM -SN OVC045
      TEMPO 1706/1710 2SM -SHSN OVC020
     FM171100 23008KT P6SM OVC025
     FM171900 25012G20KT P6SM BKN035
     FM180200 22015G25KT P6SM SCT025 BKN150=

USA.gov is the U.S. government's official web portal to all federal, state and local government web resources and services.